sensor_id;sensor_type;location;lat;lon;timestamp;P1;durP1;ratioP1;P2;durP2;ratioP2
66721;SDS011;53633;49.932;10.884;2023-08-17T00:00:47;7.47;;;4.22;;
66721;SDS011;53633;49.932;10.884;2023-08-17T00:03:14;8.07;;;3.80;;
66721;SDS011;53633;49.932;10.884;2023-08-17T00:05:42;8.98;;;3.65;;
66721;SDS011;53633;49.932;10.884;2023-08-17T00:08:09;7.65;;;4.00;;
66721;SDS011;53633;49.932;10.884;2023-08-17T00:10:35;9.02;;;3.70;;
66721;SDS011;53633;49.932;10.884;2023-08-17T00:13:02;6.93;;;3.25;;
66721;SDS011;53633;49.932;10.884;2023-08-17T00:15:29;6.17;;;3.33;;
66721;SDS011;53633;49.932;10.884;2023-08-17T00:17:56;7.45;;;3.50;;
66721;SDS011;53633;49.932;10.884;2023-08-17T00:20:23;8.23;;;3.88;;
66721;SDS011;53633;49.932;10.884;2023-08-17T00:22:51;8.70;;;3.90;;
66721;SDS011;53633;49.932;10.884;2023-08-17T00:25:17;6.60;;;3.22;;
66721;SDS011;53633;49.932;10.884;2023-08-17T00:27:44;6.07;;;2.90;;
66721;SDS011;53633;49.932;10.884;2023-08-17T00:30:11;6.53;;;2.63;;
66721;SDS011;53633;49.932;10.884;2023-08-17T00:32:38;5.70;;;2.50;;
66721;SDS011;53633;49.932;10.884;2023-08-17T00:35:05;5.38;;;2.05;;
66721;SDS011;53633;49.932;10.884;2023-08-17T00:37:33;4.68;;;1.98;;
66721;SDS011;53633;49.932;10.884;2023-08-17T00:40:01;5.23;;;2.00;;
66721;SDS011;53633;49.932;10.884;2023-08-17T00:42:27;4.47;;;1.60;;
66721;SDS011;53633;49.932;10.884;2023-08-17T00:44:54;4.85;;;1.50;;
66721;SDS011;53633;49.932;10.884;2023-08-17T00:47:21;3.90;;;1.40;;
66721;SDS011;53633;49.932;10.884;2023-08-17T00:49:48;7.47;;;1.75;;
66721;SDS011;53633;49.932;10.884;2023-08-17T00:52:15;6.87;;;1.60;;
66721;SDS011;53633;49.932;10.884;2023-08-17T00:54:41;3.53;;;1.20;;
66721;SDS011;53633;49.932;10.884;2023-08-17T00:57:09;4.35;;;1.50;;
66721;SDS011;53633;49.932;10.884;2023-08-17T00:59:37;3.95;;;1.50;;
66721;SDS011;53633;49.932;10.884;2023-08-17T01:02:05;5.10;;;1.30;;
66721;SDS011;53633;49.932;10.884;2023-08-17T01:04:32;3.80;;;1.27;;
66721;SDS011;53633;49.932;10.884;2023-08-17T01:06:59;4.30;;;1.33;;
66721;SDS011;53633;49.932;10.884;2023-08-17T01:09:26;4.00;;;1.70;;
66721;SDS011;53633;49.932;10.884;2023-08-17T01:11:54;4.10;;;1.20;;
66721;SDS011;53633;49.932;10.884;2023-08-17T01:14:31;3.47;;;1.20;;
66721;SDS011;53633;49.932;10.884;2023-08-17T01:17:03;4.33;;;1.20;;
66721;SDS011;53633;49.932;10.884;2023-08-17T01:19:36;3.00;;;1.10;;
66721;SDS011;53633;49.932;10.884;2023-08-17T01:22:05;3.95;;;1.20;;
66721;SDS011;53633;49.932;10.884;2023-08-17T01:24:35;2.38;;;0.77;;
66721;SDS011;53633;49.932;10.884;2023-08-17T01:27:02;3.90;;;1.08;;
66721;SDS011;53633;49.932;10.884;2023-08-17T01:29:29;3.30;;;1.20;;
66721;SDS011;53633;49.932;10.884;2023-08-17T01:31:59;3.05;;;1.00;;
66721;SDS011;53633;49.932;10.884;2023-08-17T01:34:30;3.22;;;0.90;;
66721;SDS011;53633;49.932;10.884;2023-08-17T01:37:02;4.15;;;0.75;;
66721;SDS011;53633;49.932;10.884;2023-08-17T01:39:34;7.78;;;1.23;;
66721;SDS011;53633;49.932;10.884;2023-08-17T01:42:06;3.20;;;0.90;;
66721;SDS011;53633;49.932;10.884;2023-08-17T01:44:33;3.88;;;0.80;;
66721;SDS011;53633;49.932;10.884;2023-08-17T01:47:00;3.40;;;0.82;;
66721;SDS011;53633;49.932;10.884;2023-08-17T01:49:27;4.68;;;0.80;;
66721;SDS011;53633;49.932;10.884;2023-08-17T01:51:53;4.15;;;1.17;;
66721;SDS011;53633;49.932;10.884;2023-08-17T01:54:20;2.67;;;0.80;;
66721;SDS011;53633;49.932;10.884;2023-08-17T01:56:49;5.18;;;1.10;;
66721;SDS011;53633;49.932;10.884;2023-08-17T01:59:29;3.72;;;1.00;;
66721;SDS011;53633;49.932;10.884;2023-08-17T02:01:56;2.50;;;0.80;;
66721;SDS011;53633;49.932;10.884;2023-08-17T02:04:22;7.20;;;1.02;;
66721;SDS011;53633;49.932;10.884;2023-08-17T02:06:49;2.97;;;0.87;;
66721;SDS011;53633;49.932;10.884;2023-08-17T02:09:16;3.63;;;1.00;;
66721;SDS011;53633;49.932;10.884;2023-08-17T02:11:42;3.30;;;0.70;;
66721;SDS011;53633;49.932;10.884;2023-08-17T02:14:10;3.58;;;1.00;;
66721;SDS011;53633;49.932;10.884;2023-08-17T02:16:37;3.45;;;0.98;;
66721;SDS011;53633;49.932;10.884;2023-08-17T02:19:04;4.43;;;1.13;;
66721;SDS011;53633;49.932;10.884;2023-08-17T02:21:31;2.88;;;1.10;;
66721;SDS011;53633;49.932;10.884;2023-08-17T02:23:57;6.28;;;1.00;;
66721;SDS011;53633;49.932;10.884;2023-08-17T02:26:24;3.13;;;0.90;;
66721;SDS011;53633;49.932;10.884;2023-08-17T02:28:51;4.03;;;1.30;;
66721;SDS011;53633;49.932;10.884;2023-08-17T02:31:19;3.63;;;0.90;;
66721;SDS011;53633;49.932;10.884;2023-08-17T02:33:45;3.00;;;0.88;;
66721;SDS011;53633;49.932;10.884;2023-08-17T02:36:12;4.68;;;1.20;;
66721;SDS011;53633;49.932;10.884;2023-08-17T02:38:39;3.92;;;1.30;;
66721;SDS011;53633;49.932;10.884;2023-08-17T02:41:06;3.60;;;1.20;;
66721;SDS011;53633;49.932;10.884;2023-08-17T02:43:32;2.53;;;0.80;;
66721;SDS011;53633;49.932;10.884;2023-08-17T02:45:59;4.93;;;1.15;;
66721;SDS011;53633;49.932;10.884;2023-08-17T02:48:27;4.18;;;1.00;;
66721;SDS011;53633;49.932;10.884;2023-08-17T02:50:57;2.78;;;1.05;;
66721;SDS011;53633;49.932;10.884;2023-08-17T02:53:24;3.60;;;0.90;;
66721;SDS011;53633;49.932;10.884;2023-08-17T02:55:51;2.47;;;0.90;;
66721;SDS011;53633;49.932;10.884;2023-08-17T02:58:17;2.90;;;0.95;;
66721;SDS011;53633;49.932;10.884;2023-08-17T03:00:44;4.05;;;0.90;;
66721;SDS011;53633;49.932;10.884;2023-08-17T03:03:11;5.55;;;0.93;;
66721;SDS011;53633;49.932;10.884;2023-08-17T03:05:39;4.13;;;0.95;;
66721;SDS011;53633;49.932;10.884;2023-08-17T03:08:06;5.70;;;1.20;;
66721;SDS011;53633;49.932;10.884;2023-08-17T03:10:33;4.25;;;0.90;;
66721;SDS011;53633;49.932;10.884;2023-08-17T03:13:00;4.57;;;1.00;;
66721;SDS011;53633;49.932;10.884;2023-08-17T03:15:27;3.20;;;0.88;;
66721;SDS011;53633;49.932;10.884;2023-08-17T03:17:54;2.88;;;0.90;;
66721;SDS011;53633;49.932;10.884;2023-08-17T03:20:20;3.27;;;0.90;;
66721;SDS011;53633;49.932;10.884;2023-08-17T03:22:48;5.97;;;1.05;;
66721;SDS011;53633;49.932;10.884;2023-08-17T03:25:15;3.03;;;0.85;;
66721;SDS011;53633;49.932;10.884;2023-08-17T03:27:42;3.65;;;0.80;;
66721;SDS011;53633;49.932;10.884;2023-08-17T03:30:09;3.70;;;1.30;;
66721;SDS011;53633;49.932;10.884;2023-08-17T03:32:36;4.67;;;1.20;;
66721;SDS011;53633;49.932;10.884;2023-08-17T03:35:02;3.60;;;0.90;;
66721;SDS011;53633;49.932;10.884;2023-08-17T03:37:30;4.03;;;1.25;;
66721;SDS011;53633;49.932;10.884;2023-08-17T03:39:58;4.50;;;1.33;;
66721;SDS011;53633;49.932;10.884;2023-08-17T03:42:24;2.50;;;0.80;;
66721;SDS011;53633;49.932;10.884;2023-08-17T03:44:51;3.43;;;1.20;;
66721;SDS011;53633;49.932;10.884;2023-08-17T03:47:18;2.83;;;0.90;;
66721;SDS011;53633;49.932;10.884;2023-08-17T03:49:45;3.13;;;0.98;;
66721;SDS011;53633;49.932;10.884;2023-08-17T03:52:11;3.05;;;1.10;;
66721;SDS011;53633;49.932;10.884;2023-08-17T03:54:38;2.55;;;1.00;;
66721;SDS011;53633;49.932;10.884;2023-08-17T03:57:06;3.77;;;1.20;;
66721;SDS011;53633;49.932;10.884;2023-08-17T03:59:33;4.45;;;1.20;;
66721;SDS011;53633;49.932;10.884;2023-08-17T04:01:59;3.28;;;0.95;;
66721;SDS011;53633;49.932;10.884;2023-08-17T04:04:26;4.15;;;1.10;;
66721;SDS011;53633;49.932;10.884;2023-08-17T04:06:53;4.38;;;1.38;;
66721;SDS011;53633;49.932;10.884;2023-08-17T04:09:19;4.80;;;1.07;;
66721;SDS011;53633;49.932;10.884;2023-08-17T04:11:46;3.45;;;1.20;;
66721;SDS011;53633;49.932;10.884;2023-08-17T04:14:14;4.40;;;1.10;;
66721;SDS011;53633;49.932;10.884;2023-08-17T04:16:43;3.30;;;1.20;;
66721;SDS011;53633;49.932;10.884;2023-08-17T04:19:09;4.45;;;1.10;;
66721;SDS011;53633;49.932;10.884;2023-08-17T04:21:36;3.47;;;1.13;;
66721;SDS011;53633;49.932;10.884;2023-08-17T04:24:03;3.17;;;1.10;;
66721;SDS011;53633;49.932;10.884;2023-08-17T04:26:30;3.75;;;1.13;;
66721;SDS011;53633;49.932;10.884;2023-08-17T04:28:57;4.45;;;1.48;;
66721;SDS011;53633;49.932;10.884;2023-08-17T04:31:25;4.50;;;1.50;;
66721;SDS011;53633;49.932;10.884;2023-08-17T04:33:52;3.10;;;1.17;;
66721;SDS011;53633;49.932;10.884;2023-08-17T04:36:19;5.72;;;1.30;;
66721;SDS011;53633;49.932;10.884;2023-08-17T04:38:45;4.00;;;1.15;;
66721;SDS011;53633;49.932;10.884;2023-08-17T04:41:12;3.90;;;1.20;;
66721;SDS011;53633;49.932;10.884;2023-08-17T04:43:39;5.30;;;1.20;;
66721;SDS011;53633;49.932;10.884;2023-08-17T04:46:05;4.23;;;1.47;;
66721;SDS011;53633;49.932;10.884;2023-08-17T04:48:33;3.30;;;1.00;;
66721;SDS011;53633;49.932;10.884;2023-08-17T04:51:00;4.10;;;1.30;;
66721;SDS011;53633;49.932;10.884;2023-08-17T04:53:27;5.53;;;1.17;;
66721;SDS011;53633;49.932;10.884;2023-08-17T04:55:53;7.13;;;1.65;;
66721;SDS011;53633;49.932;10.884;2023-08-17T04:58:20;3.83;;;1.10;;
66721;SDS011;53633;49.932;10.884;2023-08-17T05:00:47;3.83;;;1.33;;
66721;SDS011;53633;49.932;10.884;2023-08-17T05:03:13;4.63;;;1.50;;
66721;SDS011;53633;49.932;10.884;2023-08-17T05:06:00;5.95;;;1.48;;
66721;SDS011;53633;49.932;10.884;2023-08-17T05:08:26;4.10;;;1.38;;
66721;SDS011;53633;49.932;10.884;2023-08-17T05:10:53;3.20;;;0.97;;
66721;SDS011;53633;49.932;10.884;2023-08-17T05:13:20;5.18;;;1.67;;
66721;SDS011;53633;49.932;10.884;2023-08-17T05:15:47;4.45;;;1.45;;
66721;SDS011;53633;49.932;10.884;2023-08-17T05:18:14;5.78;;;1.27;;
66721;SDS011;53633;49.932;10.884;2023-08-17T05:20:40;4.13;;;1.50;;
66721;SDS011;53633;49.932;10.884;2023-08-17T05:23:08;8.43;;;1.50;;
66721;SDS011;53633;49.932;10.884;2023-08-17T05:25:35;5.68;;;1.50;;
66721;SDS011;53633;49.932;10.884;2023-08-17T05:28:02;3.72;;;1.50;;
66721;SDS011;53633;49.932;10.884;2023-08-17T05:30:28;5.47;;;2.10;;
66721;SDS011;53633;49.932;10.884;2023-08-17T05:32:55;4.15;;;1.85;;
66721;SDS011;53633;49.932;10.884;2023-08-17T05:35:22;6.47;;;2.30;;
66721;SDS011;53633;49.932;10.884;2023-08-17T05:37:49;3.72;;;1.80;;
66721;SDS011;53633;49.932;10.884;2023-08-17T05:40:17;6.40;;;2.20;;
66721;SDS011;53633;49.932;10.884;2023-08-17T05:42:43;5.57;;;2.08;;
66721;SDS011;53633;49.932;10.884;2023-08-17T05:45:10;3.80;;;1.80;;
66721;SDS011;53633;49.932;10.884;2023-08-17T05:47:37;3.87;;;1.73;;
66721;SDS011;53633;49.932;10.884;2023-08-17T05:50:04;4.80;;;2.00;;
66721;SDS011;53633;49.932;10.884;2023-08-17T05:52:32;7.13;;;2.38;;
66721;SDS011;53633;49.932;10.884;2023-08-17T05:54:58;4.32;;;2.20;;
66721;SDS011;53633;49.932;10.884;2023-08-17T05:57:26;5.95;;;2.20;;
66721;SDS011;53633;49.932;10.884;2023-08-17T05:59:54;5.50;;;2.53;;
66721;SDS011;53633;49.932;10.884;2023-08-17T06:02:20;8.60;;;2.20;;
66721;SDS011;53633;49.932;10.884;2023-08-17T06:04:47;7.00;;;2.42;;
66721;SDS011;53633;49.932;10.884;2023-08-17T06:07:14;6.18;;;2.60;;
66721;SDS011;53633;49.932;10.884;2023-08-17T06:09:40;5.32;;;2.60;;
66721;SDS011;53633;49.932;10.884;2023-08-17T06:12:07;8.73;;;2.60;;
66721;SDS011;53633;49.932;10.884;2023-08-17T06:14:35;5.97;;;2.40;;
66721;SDS011;53633;49.932;10.884;2023-08-17T06:17:02;10.23;;;3.22;;
66721;SDS011;53633;49.932;10.884;2023-08-17T06:19:29;7.10;;;2.88;;
66721;SDS011;53633;49.932;10.884;2023-08-17T06:21:55;4.85;;;2.80;;
66721;SDS011;53633;49.932;10.884;2023-08-17T06:24:22;4.47;;;2.50;;
66721;SDS011;53633;49.932;10.884;2023-08-17T06:26:49;7.03;;;2.97;;
66721;SDS011;53633;49.932;10.884;2023-08-17T06:29:15;7.93;;;3.05;;
66721;SDS011;53633;49.932;10.884;2023-08-17T06:31:43;6.18;;;3.08;;
66721;SDS011;53633;49.932;10.884;2023-08-17T06:34:10;4.95;;;2.38;;
66721;SDS011;53633;49.932;10.884;2023-08-17T06:36:37;8.10;;;3.13;;
66721;SDS011;53633;49.932;10.884;2023-08-17T06:39:04;5.88;;;3.20;;
66721;SDS011;53633;49.932;10.884;2023-08-17T06:41:31;6.18;;;3.35;;
66721;SDS011;53633;49.932;10.884;2023-08-17T06:43:58;6.38;;;2.70;;
66721;SDS011;53633;49.932;10.884;2023-08-17T06:46:24;7.18;;;3.53;;
66721;SDS011;53633;49.932;10.884;2023-08-17T06:48:52;15.10;;;4.13;;
66721;SDS011;53633;49.932;10.884;2023-08-17T06:51:19;12.25;;;3.60;;
66721;SDS011;53633;49.932;10.884;2023-08-17T06:53:46;6.90;;;3.30;;
66721;SDS011;53633;49.932;10.884;2023-08-17T06:56:12;6.65;;;3.35;;
66721;SDS011;53633;49.932;10.884;2023-08-17T06:58:39;7.18;;;3.67;;
66721;SDS011;53633;49.932;10.884;2023-08-17T07:01:06;6.90;;;3.43;;
66721;SDS011;53633;49.932;10.884;2023-08-17T07:03:32;6.22;;;3.00;;
66721;SDS011;53633;49.932;10.884;2023-08-17T07:06:00;6.20;;;3.55;;
66721;SDS011;53633;49.932;10.884;2023-08-17T07:08:27;6.45;;;2.97;;
66721;SDS011;53633;49.932;10.884;2023-08-17T07:10:53;6.40;;;3.15;;
66721;SDS011;53633;49.932;10.884;2023-08-17T07:13:20;5.90;;;2.90;;
66721;SDS011;53633;49.932;10.884;2023-08-17T07:15:47;7.75;;;3.00;;
66721;SDS011;53633;49.932;10.884;2023-08-17T07:18:14;6.05;;;3.47;;
66721;SDS011;53633;49.932;10.884;2023-08-17T07:20:40;8.27;;;3.40;;
66721;SDS011;53633;49.932;10.884;2023-08-17T07:23:08;6.53;;;3.78;;
66721;SDS011;53633;49.932;10.884;2023-08-17T07:25:35;8.60;;;3.87;;
66721;SDS011;53633;49.932;10.884;2023-08-17T07:28:02;8.15;;;5.20;;
66721;SDS011;53633;49.932;10.884;2023-08-17T07:30:29;7.50;;;4.85;;
66721;SDS011;53633;49.932;10.884;2023-08-17T07:32:55;7.75;;;4.55;;
66721;SDS011;53633;49.932;10.884;2023-08-17T07:35:22;7.93;;;4.47;;
66721;SDS011;53633;49.932;10.884;2023-08-17T07:37:49;7.00;;;4.40;;
66721;SDS011;53633;49.932;10.884;2023-08-17T07:40:34;7.55;;;4.75;;
66721;SDS011;53633;49.932;10.884;2023-08-17T07:43:00;7.78;;;4.40;;
66721;SDS011;53633;49.932;10.884;2023-08-17T07:45:27;10.77;;;5.50;;
66721;SDS011;53633;49.932;10.884;2023-08-17T07:47:54;8.07;;;5.03;;
66721;SDS011;53633;49.932;10.884;2023-08-17T07:50:21;8.43;;;5.60;;
66721;SDS011;53633;49.932;10.884;2023-08-17T07:52:47;6.95;;;4.57;;
66721;SDS011;53633;49.932;10.884;2023-08-17T07:55:14;9.38;;;4.95;;
66721;SDS011;53633;49.932;10.884;2023-08-17T07:57:42;10.25;;;4.70;;
66721;SDS011;53633;49.932;10.884;2023-08-17T08:00:09;8.63;;;4.97;;
66721;SDS011;53633;49.932;10.884;2023-08-17T08:02:36;7.57;;;4.33;;
66721;SDS011;53633;49.932;10.884;2023-08-17T08:05:03;7.47;;;4.75;;
66721;SDS011;53633;49.932;10.884;2023-08-17T08:07:30;7.32;;;4.53;;
66721;SDS011;53633;49.932;10.884;2023-08-17T08:09:57;8.15;;;4.80;;
66721;SDS011;53633;49.932;10.884;2023-08-17T08:12:23;7.47;;;4.93;;
66721;SDS011;53633;49.932;10.884;2023-08-17T08:14:51;9.57;;;5.60;;
66721;SDS011;53633;49.932;10.884;2023-08-17T08:17:18;8.55;;;5.03;;
66721;SDS011;53633;49.932;10.884;2023-08-17T08:19:45;7.40;;;5.35;;
66721;SDS011;53633;49.932;10.884;2023-08-17T08:22:12;9.85;;;5.75;;
66721;SDS011;53633;49.932;10.884;2023-08-17T08:24:38;6.75;;;4.75;;
66721;SDS011;53633;49.932;10.884;2023-08-17T08:27:06;6.57;;;4.87;;
66721;SDS011;53633;49.932;10.884;2023-08-17T08:29:33;7.00;;;4.80;;
66721;SDS011;53633;49.932;10.884;2023-08-17T08:32:01;8.93;;;5.45;;
66721;SDS011;53633;49.932;10.884;2023-08-17T08:34:28;7.30;;;4.68;;
66721;SDS011;53633;49.932;10.884;2023-08-17T08:36:56;8.60;;;5.50;;
66721;SDS011;53633;49.932;10.884;2023-08-17T08:39:25;8.20;;;5.23;;
66721;SDS011;53633;49.932;10.884;2023-08-17T08:41:51;6.72;;;5.47;;
66721;SDS011;53633;49.932;10.884;2023-08-17T08:44:18;8.55;;;5.82;;
66721;SDS011;53633;49.932;10.884;2023-08-17T08:46:45;7.93;;;4.88;;
66721;SDS011;53633;49.932;10.884;2023-08-17T08:49:13;9.32;;;5.72;;
66721;SDS011;53633;49.932;10.884;2023-08-17T08:51:46;10.03;;;5.67;;
66721;SDS011;53633;49.932;10.884;2023-08-17T08:54:18;7.60;;;5.28;;
66721;SDS011;53633;49.932;10.884;2023-08-17T08:56:47;10.45;;;5.53;;
66721;SDS011;53633;49.932;10.884;2023-08-17T08:59:18;9.18;;;5.70;;
66721;SDS011;53633;49.932;10.884;2023-08-17T09:01:46;8.68;;;5.53;;
66721;SDS011;53633;49.932;10.884;2023-08-17T09:04:16;9.67;;;5.43;;
66721;SDS011;53633;49.932;10.884;2023-08-17T09:06:43;9.07;;;5.40;;
66721;SDS011;53633;49.932;10.884;2023-08-17T09:09:10;7.93;;;5.45;;
66721;SDS011;53633;49.932;10.884;2023-08-17T09:11:40;9.20;;;5.65;;
66721;SDS011;53633;49.932;10.884;2023-08-17T09:14:10;9.65;;;5.60;;
66721;SDS011;53633;49.932;10.884;2023-08-17T09:16:37;8.50;;;5.70;;
66721;SDS011;53633;49.932;10.884;2023-08-17T09:19:05;8.32;;;5.43;;
66721;SDS011;53633;49.932;10.884;2023-08-17T09:21:33;7.57;;;5.43;;
66721;SDS011;53633;49.932;10.884;2023-08-17T09:24:00;9.73;;;5.55;;
66721;SDS011;53633;49.932;10.884;2023-08-17T09:26:30;7.78;;;5.53;;
66721;SDS011;53633;49.932;10.884;2023-08-17T09:28:58;6.90;;;4.77;;
66721;SDS011;53633;49.932;10.884;2023-08-17T09:31:25;9.18;;;5.55;;
66721;SDS011;53633;49.932;10.884;2023-08-17T09:33:52;8.27;;;5.40;;
66721;SDS011;53633;49.932;10.884;2023-08-17T09:36:20;7.88;;;5.30;;
66721;SDS011;53633;49.932;10.884;2023-08-17T09:38:49;10.48;;;5.95;;
66721;SDS011;53633;49.932;10.884;2023-08-17T09:41:17;7.50;;;5.23;;
66721;SDS011;53633;49.932;10.884;2023-08-17T09:43:44;8.65;;;5.68;;
66721;SDS011;53633;49.932;10.884;2023-08-17T09:46:11;9.02;;;5.30;;
66721;SDS011;53633;49.932;10.884;2023-08-17T09:48:37;7.65;;;6.05;;
66721;SDS011;53633;49.932;10.884;2023-08-17T09:51:05;11.65;;;5.45;;
66721;SDS011;53633;49.932;10.884;2023-08-17T09:53:34;9.03;;;4.83;;
66721;SDS011;53633;49.932;10.884;2023-08-17T09:56:03;8.00;;;5.50;;
66721;SDS011;53633;49.932;10.884;2023-08-17T09:58:31;8.65;;;5.20;;
66721;SDS011;53633;49.932;10.884;2023-08-17T10:00:58;8.43;;;5.45;;
66721;SDS011;53633;49.932;10.884;2023-08-17T10:03:27;10.02;;;5.45;;
66721;SDS011;53633;49.932;10.884;2023-08-17T10:05:57;8.73;;;5.63;;
66721;SDS011;53633;49.932;10.884;2023-08-17T10:08:28;9.23;;;5.30;;
66721;SDS011;53633;49.932;10.884;2023-08-17T10:10:57;7.95;;;5.70;;
66721;SDS011;53633;49.932;10.884;2023-08-17T10:13:27;9.80;;;5.65;;
66721;SDS011;53633;49.932;10.884;2023-08-17T10:16:00;10.32;;;6.75;;
66721;SDS011;53633;49.932;10.884;2023-08-17T10:18:31;10.77;;;5.53;;
66721;SDS011;53633;49.932;10.884;2023-08-17T10:21:05;8.05;;;5.70;;
66721;SDS011;53633;49.932;10.884;2023-08-17T10:23:34;9.23;;;5.32;;
66721;SDS011;53633;49.932;10.884;2023-08-17T10:26:07;8.18;;;5.28;;
66721;SDS011;53633;49.932;10.884;2023-08-17T10:28:35;9.75;;;5.85;;
66721;SDS011;53633;49.932;10.884;2023-08-17T10:31:03;8.60;;;5.83;;
66721;SDS011;53633;49.932;10.884;2023-08-17T10:33:30;7.78;;;5.40;;
66721;SDS011;53633;49.932;10.884;2023-08-17T10:35:59;10.57;;;6.15;;
66721;SDS011;53633;49.932;10.884;2023-08-17T10:38:27;8.85;;;5.85;;
66721;SDS011;53633;49.932;10.884;2023-08-17T10:41:07;9.68;;;6.00;;
66721;SDS011;53633;49.932;10.884;2023-08-17T10:43:36;9.83;;;6.57;;
66721;SDS011;53633;49.932;10.884;2023-08-17T10:46:19;9.68;;;5.80;;
66721;SDS011;53633;49.932;10.884;2023-08-17T10:48:46;13.00;;;6.65;;
66721;SDS011;53633;49.932;10.884;2023-08-17T10:51:13;8.07;;;5.82;;
66721;SDS011;53633;49.932;10.884;2023-08-17T10:53:40;9.73;;;6.40;;
66721;SDS011;53633;49.932;10.884;2023-08-17T10:56:13;11.83;;;6.30;;
66721;SDS011;53633;49.932;10.884;2023-08-17T10:58:43;9.93;;;6.40;;
66721;SDS011;53633;49.932;10.884;2023-08-17T11:01:10;9.32;;;6.30;;
66721;SDS011;53633;49.932;10.884;2023-08-17T11:03:36;9.55;;;5.93;;
66721;SDS011;53633;49.932;10.884;2023-08-17T11:06:16;8.82;;;5.70;;
66721;SDS011;53633;49.932;10.884;2023-08-17T11:08:53;10.47;;;5.73;;
66721;SDS011;53633;49.932;10.884;2023-08-17T11:11:21;9.30;;;6.10;;
66721;SDS011;53633;49.932;10.884;2023-08-17T11:13:50;11.00;;;6.53;;
66721;SDS011;53633;49.932;10.884;2023-08-17T11:16:22;9.82;;;6.07;;
66721;SDS011;53633;49.932;10.884;2023-08-17T11:18:49;8.68;;;6.28;;
66721;SDS011;53633;49.932;10.884;2023-08-17T11:21:19;9.13;;;6.77;;
66721;SDS011;53633;49.932;10.884;2023-08-17T11:23:46;9.32;;;5.90;;
66721;SDS011;53633;49.932;10.884;2023-08-17T11:26:15;9.90;;;6.38;;
66721;SDS011;53633;49.932;10.884;2023-08-17T11:28:42;10.35;;;5.20;;
66721;SDS011;53633;49.932;10.884;2023-08-17T11:31:11;10.57;;;5.90;;
66721;SDS011;53633;49.932;10.884;2023-08-17T11:33:38;8.43;;;5.40;;
66721;SDS011;53633;49.932;10.884;2023-08-17T11:36:06;9.40;;;6.00;;
66721;SDS011;53633;49.932;10.884;2023-08-17T11:38:34;7.88;;;5.72;;
66721;SDS011;53633;49.932;10.884;2023-08-17T11:41:03;10.27;;;5.63;;
66721;SDS011;53633;49.932;10.884;2023-08-17T11:43:31;7.20;;;5.20;;
66721;SDS011;53633;49.932;10.884;2023-08-17T11:45:59;7.87;;;5.73;;
66721;SDS011;53633;49.932;10.884;2023-08-17T11:48:28;9.38;;;5.45;;
66721;SDS011;53633;49.932;10.884;2023-08-17T11:50:55;8.40;;;5.88;;
66721;SDS011;53633;49.932;10.884;2023-08-17T11:53:21;7.90;;;5.78;;
66721;SDS011;53633;49.932;10.884;2023-08-17T11:55:48;9.93;;;5.95;;
66721;SDS011;53633;49.932;10.884;2023-08-17T11:58:35;8.67;;;5.90;;
66721;SDS011;53633;49.932;10.884;2023-08-17T12:01:02;9.07;;;5.72;;
66721;SDS011;53633;49.932;10.884;2023-08-17T12:03:36;10.45;;;5.63;;
66721;SDS011;53633;49.932;10.884;2023-08-17T12:06:04;7.57;;;5.63;;
66721;SDS011;53633;49.932;10.884;2023-08-17T12:08:31;8.30;;;5.90;;
66721;SDS011;53633;49.932;10.884;2023-08-17T12:10:58;8.07;;;5.63;;
66721;SDS011;53633;49.932;10.884;2023-08-17T12:13:29;9.82;;;5.85;;
66721;SDS011;53633;49.932;10.884;2023-08-17T12:15:56;10.10;;;5.97;;
66721;SDS011;53633;49.932;10.884;2023-08-17T12:18:23;8.55;;;5.95;;
66721;SDS011;53633;49.932;10.884;2023-08-17T12:20:53;8.45;;;6.05;;
66721;SDS011;53633;49.932;10.884;2023-08-17T12:23:20;7.90;;;5.80;;
66721;SDS011;53633;49.932;10.884;2023-08-17T12:25:51;9.43;;;5.97;;
66721;SDS011;53633;49.932;10.884;2023-08-17T12:28:19;11.25;;;6.70;;
66721;SDS011;53633;49.932;10.884;2023-08-17T12:30:45;10.30;;;5.72;;
66721;SDS011;53633;49.932;10.884;2023-08-17T12:33:12;11.57;;;6.88;;
66721;SDS011;53633;49.932;10.884;2023-08-17T12:35:39;11.60;;;6.10;;
66721;SDS011;53633;49.932;10.884;2023-08-17T12:38:07;10.02;;;6.00;;
66721;SDS011;53633;49.932;10.884;2023-08-17T12:40:34;8.27;;;6.43;;
66721;SDS011;53633;49.932;10.884;2023-08-17T12:43:00;8.55;;;6.20;;
66721;SDS011;53633;49.932;10.884;2023-08-17T12:45:27;7.97;;;6.32;;
66721;SDS011;53633;49.932;10.884;2023-08-17T12:47:54;10.00;;;6.37;;
66721;SDS011;53633;49.932;10.884;2023-08-17T12:50:21;9.98;;;6.25;;
66721;SDS011;53633;49.932;10.884;2023-08-17T12:52:47;8.93;;;5.88;;
66721;SDS011;53633;49.932;10.884;2023-08-17T12:55:15;8.88;;;5.85;;
66721;SDS011;53633;49.932;10.884;2023-08-17T12:57:42;9.98;;;6.43;;
66721;SDS011;53633;49.932;10.884;2023-08-17T13:00:09;10.20;;;6.20;;
66721;SDS011;53633;49.932;10.884;2023-08-17T13:02:37;7.90;;;5.93;;
66721;SDS011;53633;49.932;10.884;2023-08-17T13:05:04;8.27;;;6.30;;
66721;SDS011;53633;49.932;10.884;2023-08-17T13:07:31;8.13;;;6.30;;
66721;SDS011;53633;49.932;10.884;2023-08-17T13:09:57;9.52;;;6.65;;
66721;SDS011;53633;49.932;10.884;2023-08-17T13:12:25;8.43;;;6.37;;
66721;SDS011;53633;49.932;10.884;2023-08-17T13:14:52;7.70;;;6.13;;
66721;SDS011;53633;49.932;10.884;2023-08-17T13:17:19;8.25;;;6.30;;
66721;SDS011;53633;49.932;10.884;2023-08-17T13:19:46;8.82;;;5.65;;
66721;SDS011;53633;49.932;10.884;2023-08-17T13:22:12;8.15;;;6.15;;
66721;SDS011;53633;49.932;10.884;2023-08-17T13:24:39;8.13;;;6.80;;
66721;SDS011;53633;49.932;10.884;2023-08-17T13:27:06;8.98;;;6.20;;
66721;SDS011;53633;49.932;10.884;2023-08-17T13:29:34;8.45;;;6.60;;
66721;SDS011;53633;49.932;10.884;2023-08-17T13:32:00;10.15;;;6.47;;
66721;SDS011;53633;49.932;10.884;2023-08-17T13:34:27;9.55;;;7.18;;
66721;SDS011;53633;49.932;10.884;2023-08-17T13:36:54;8.90;;;6.17;;
66721;SDS011;53633;49.932;10.884;2023-08-17T13:39:20;8.05;;;5.97;;
66721;SDS011;53633;49.932;10.884;2023-08-17T13:41:47;11.38;;;6.63;;
66721;SDS011;53633;49.932;10.884;2023-08-17T13:44:14;8.25;;;5.53;;
66721;SDS011;53633;49.932;10.884;2023-08-17T13:46:42;9.02;;;6.30;;
66721;SDS011;53633;49.932;10.884;2023-08-17T13:49:08;8.20;;;6.17;;
66721;SDS011;53633;49.932;10.884;2023-08-17T13:51:35;9.27;;;6.60;;
66721;SDS011;53633;49.932;10.884;2023-08-17T13:54:02;9.27;;;6.65;;
66721;SDS011;53633;49.932;10.884;2023-08-17T13:56:29;8.25;;;6.03;;
66721;SDS011;53633;49.932;10.884;2023-08-17T13:58:56;10.95;;;7.22;;
66721;SDS011;53633;49.932;10.884;2023-08-17T14:01:22;11.47;;;6.47;;
66721;SDS011;53633;49.932;10.884;2023-08-17T14:03:51;12.18;;;6.80;;
66721;SDS011;53633;49.932;10.884;2023-08-17T14:06:18;8.27;;;6.53;;
66721;SDS011;53633;49.932;10.884;2023-08-17T14:08:44;9.75;;;6.07;;
66721;SDS011;53633;49.932;10.884;2023-08-17T14:11:11;9.40;;;6.50;;
66721;SDS011;53633;49.932;10.884;2023-08-17T14:13:38;8.70;;;6.03;;
66721;SDS011;53633;49.932;10.884;2023-08-17T14:16:05;8.63;;;6.18;;
66721;SDS011;53633;49.932;10.884;2023-08-17T14:18:31;10.77;;;6.88;;
66721;SDS011;53633;49.932;10.884;2023-08-17T14:20:59;9.07;;;6.22;;
66721;SDS011;53633;49.932;10.884;2023-08-17T14:23:26;10.35;;;7.38;;
66721;SDS011;53633;49.932;10.884;2023-08-17T14:25:53;9.23;;;6.90;;
66721;SDS011;53633;49.932;10.884;2023-08-17T14:28:19;9.00;;;6.70;;
66721;SDS011;53633;49.932;10.884;2023-08-17T14:30:46;12.82;;;6.65;;
66721;SDS011;53633;49.932;10.884;2023-08-17T14:33:17;9.75;;;6.38;;
66721;SDS011;53633;49.932;10.884;2023-08-17T14:35:44;11.05;;;7.03;;